createdAt,value
2018-04-17T00:00:51.446Z,15.20
2018-04-17T00:01:51.443Z,17.90
2018-04-17T00:02:51.438Z,15.80
2018-04-17T00:03:51.446Z,19.10
2018-04-17T00:04:51.422Z,16.60
2018-04-17T00:05:51.428Z,18.30
2018-04-17T00:06:51.424Z,15.50
2018-04-17T00:07:51.412Z,16.10
2018-04-17T00:08:51.404Z,16.20
2018-04-17T00:09:51.405Z,18.10
2018-04-17T00:10:51.400Z,17.80
2018-04-17T00:11:51.386Z,16.20
2018-04-17T00:12:51.390Z,17.20
2018-04-17T00:13:51.385Z,19.50
2018-04-17T00:14:51.385Z,19.80
2018-04-17T00:15:51.370Z,19.20
2018-04-17T00:16:51.378Z,18.50
2018-04-17T00:17:51.363Z,19.50
2018-04-17T00:18:51.358Z,20.60
2018-04-17T00:19:51.361Z,18.60
2018-04-17T00:20:51.349Z,22.40
2018-04-17T00:21:51.336Z,19.10
2018-04-17T00:22:51.342Z,22.00
2018-04-17T00:23:51.335Z,22.90
2018-04-17T00:24:51.326Z,20.70
2018-04-17T00:25:51.341Z,23.50
2018-04-17T00:26:51.318Z,20.60
2018-04-17T00:27:51.309Z,22.30
2018-04-17T00:28:51.308Z,23.60
2018-04-17T00:29:51.292Z,21.90
2018-04-17T00:30:51.294Z,24.40
2018-04-17T00:31:51.294Z,24.50
2018-04-17T00:32:51.284Z,26.30
2018-04-17T00:33:51.317Z,25.40
2018-04-17T00:34:51.279Z,26.10
2018-04-17T00:35:51.268Z,24.30
2018-04-17T00:36:51.265Z,27.70
2018-04-17T00:37:51.256Z,33.00
2018-04-17T00:38:51.250Z,37.00
2018-04-17T00:39:51.244Z,27.30
2018-04-17T00:40:51.248Z,34.10
2018-04-17T00:41:51.241Z,33.50
2018-04-17T00:42:51.261Z,33.80
2018-04-17T00:43:51.228Z,35.90
2018-04-17T00:44:51.229Z,39.60
2018-04-17T00:45:51.219Z,43.60
2018-04-17T00:46:51.219Z,39.80
2018-04-17T00:47:51.206Z,41.10
2018-04-17T00:48:51.203Z,37.60
2018-04-17T00:49:51.214Z,30.30
2018-04-17T00:50:51.190Z,30.00
2018-04-17T00:51:51.192Z,35.20
2018-04-17T00:52:51.183Z,40.90
2018-04-17T00:53:51.185Z,46.30
2018-04-17T00:54:51.174Z,40.10
2018-04-17T00:55:51.173Z,41.60
2018-04-17T00:56:51.203Z,33.40
2018-04-17T00:57:51.157Z,35.50
2018-04-17T00:58:51.155Z,33.80
2018-04-17T00:59:51.174Z,39.40
2018-04-17T01:00:51.168Z,37.80
2018-04-17T01:01:51.137Z,38.90
2018-04-17T01:02:51.128Z,43.70
2018-04-17T01:03:51.135Z,47.70
2018-04-17T01:04:51.109Z,45.80
2018-04-17T01:05:51.115Z,50.00
2018-04-17T01:06:51.117Z,57.40
2018-04-17T01:07:51.130Z,55.70
2018-04-17T01:08:51.100Z,58.10
2018-04-17T01:09:51.104Z,65.40
2018-04-17T01:10:51.092Z,59.10
2018-04-17T01:11:51.073Z,56.70
2018-04-17T01:12:51.070Z,56.30
2018-04-17T01:13:51.075Z,60.60
2018-04-17T01:14:51.075Z,61.10
2018-04-17T01:15:51.080Z,52.80
2018-04-17T01:16:51.062Z,54.10
2018-04-17T01:17:51.052Z,52.90
2018-04-17T01:18:51.034Z,53.10
2018-04-17T01:19:51.047Z,58.60
2018-04-17T01:20:51.045Z,63.70
2018-04-17T01:21:51.019Z,58.60
2018-04-17T01:22:51.025Z,64.80
2018-04-17T01:23:51.019Z,69.20
2018-04-17T01:24:50.996Z,68.10
2018-04-17T01:25:51.006Z,75.20
2018-04-17T01:26:50.990Z,74.10
2018-04-17T01:27:50.981Z,77.20
2018-04-17T01:28:50.999Z,79.80
2018-04-17T01:29:50.974Z,88.30
2018-04-17T02:02:10.713Z,27.50
2018-04-17T02:03:10.612Z,89.30
2018-04-17T02:05:03.506Z,148.40
2018-04-17T02:06:03.470Z,164.60
2018-04-17T02:07:56.385Z,164.60
2018-04-17T02:08:56.353Z,149.10
2018-04-17T02:10:49.242Z,153.70
2018-04-17T02:11:49.233Z,165.90
2018-04-17T02:13:42.169Z,184.60
2018-04-17T02:14:42.134Z,169.80
2018-04-17T02:16:35.040Z,204.60
2018-04-17T02:17:34.999Z,178.80
2018-04-17T02:19:27.981Z,166.00
2018-04-17T02:20:27.945Z,169.10
2018-04-17T02:22:20.893Z,145.80
2018-04-17T02:23:20.818Z,158.70
2018-04-17T02:25:13.718Z,136.40
2018-04-17T02:26:13.721Z,144.00
2018-04-17T02:28:06.640Z,141.00
2018-04-17T02:29:06.609Z,140.50
2018-04-17T02:31:50.573Z,135.60
2018-04-17T02:32:50.541Z,144.70
2018-04-17T02:34:43.516Z,131.60
2018-04-17T02:35:43.417Z,126.40
2018-04-17T02:37:36.328Z,123.40
2018-04-17T02:38:36.308Z,142.70
2018-04-17T02:39:36.289Z,153.00
2018-04-17T02:40:36.294Z,130.30
2018-04-17T02:41:36.281Z,121.90
2018-04-17T02:42:36.284Z,142.20
2018-04-17T02:43:36.271Z,139.90
2018-04-17T02:44:36.277Z,151.30
2018-04-17T02:45:36.254Z,145.30
2018-04-17T02:46:36.265Z,144.80
2018-04-17T02:47:36.259Z,138.80
2018-04-17T02:48:36.238Z,139.80
2018-04-17T02:49:36.244Z,142.40
2018-04-17T02:50:36.241Z,134.90
2018-04-17T02:51:36.221Z,128.20
2018-04-17T02:52:36.219Z,144.80
2018-04-17T02:53:36.200Z,123.70
2018-04-17T02:54:36.199Z,129.30
2018-04-17T02:55:36.194Z,123.00
2018-04-17T02:56:36.199Z,132.00
2018-04-17T02:57:36.199Z,125.00
2018-04-17T02:58:36.181Z,137.00
2018-04-17T02:59:36.162Z,130.80
2018-04-17T03:00:36.159Z,149.50
2018-04-17T03:01:36.155Z,144.30
2018-04-17T03:02:36.162Z,145.70
2018-04-17T03:03:36.146Z,144.40
2018-04-17T03:04:36.136Z,151.80
2018-04-17T03:05:36.129Z,138.60
2018-04-17T03:06:36.120Z,128.50
2018-04-17T03:07:36.120Z,126.70
2018-04-17T03:08:36.114Z,132.80
2018-04-17T03:09:36.100Z,140.30
2018-04-17T03:10:36.114Z,144.10
2018-04-17T03:11:36.092Z,150.20
2018-04-17T03:12:36.078Z,168.00
2018-04-17T03:13:36.094Z,149.00
2018-04-17T03:14:36.066Z,142.80
2018-04-17T03:15:36.065Z,142.40
2018-04-17T03:16:36.057Z,144.30
2018-04-17T03:17:36.050Z,140.30
2018-04-17T03:18:36.038Z,140.10
2018-04-17T03:19:36.032Z,133.10
2018-04-17T03:20:36.034Z,138.20
2018-04-17T03:21:36.040Z,130.60
2018-04-17T03:22:36.023Z,134.60
2018-04-17T03:23:36.021Z,124.30
2018-04-17T03:24:36.003Z,126.10
2018-04-17T03:25:35.989Z,130.60
2018-04-17T03:26:35.988Z,145.60
2018-04-17T03:27:35.985Z,136.80
2018-04-17T03:28:35.988Z,162.60
2018-04-17T03:29:35.969Z,147.80
2018-04-17T03:30:35.965Z,150.50
2018-04-17T03:31:35.953Z,135.50
2018-04-17T03:32:35.945Z,143.50
2018-04-17T03:33:35.939Z,143.70
2018-04-17T03:34:35.934Z,136.10
2018-04-17T03:35:35.932Z,142.30
2018-04-17T03:36:35.937Z,131.80
2018-04-17T03:37:35.920Z,127.70
2018-04-17T03:38:35.912Z,137.90
2018-04-17T03:39:35.904Z,124.60
2018-04-17T03:40:35.895Z,124.10
2018-04-17T03:41:35.879Z,139.20
2018-04-17T03:42:35.892Z,155.70
2018-04-17T03:43:35.867Z,162.60
2018-04-17T03:44:35.864Z,165.90
2018-04-17T03:45:35.873Z,180.20
2018-04-17T03:46:35.854Z,171.60
2018-04-17T03:47:35.851Z,177.40
2018-04-17T03:48:35.848Z,146.70
2018-04-17T03:49:35.826Z,142.50
2018-04-17T03:50:35.824Z,133.30
2018-04-17T03:51:35.835Z,129.10
2018-04-17T03:52:35.818Z,122.00
2018-04-17T03:53:35.812Z,144.80
2018-04-17T03:54:35.809Z,136.90
2018-04-17T03:55:35.795Z,130.10
2018-04-17T03:56:35.804Z,130.10
2018-04-17T03:57:35.787Z,134.00
2018-04-17T03:58:35.776Z,130.90
2018-04-17T03:59:35.761Z,130.70
2018-04-17T04:00:35.768Z,122.80
2018-04-17T04:01:35.756Z,126.90
2018-04-17T04:02:35.748Z,132.80
2018-04-17T04:03:35.743Z,136.40
2018-04-17T04:04:35.737Z,146.50
2018-04-17T04:05:35.720Z,153.30
2018-04-17T04:06:35.729Z,155.70
2018-04-17T04:07:35.708Z,158.60
2018-04-17T04:08:35.720Z,159.00
2018-04-17T04:09:35.705Z,162.10
2018-04-17T04:10:35.695Z,159.10
2018-04-17T04:11:35.684Z,153.40
2018-04-17T04:12:35.673Z,154.00
2018-04-17T04:13:35.677Z,162.20
2018-04-17T04:14:35.666Z,168.60
2018-04-17T04:15:35.649Z,169.80
2018-04-17T04:16:35.663Z,182.10
2018-04-17T04:17:35.642Z,166.20
2018-04-17T04:18:35.633Z,156.60
2018-04-17T04:19:35.626Z,144.60
2018-04-17T04:20:35.623Z,147.70
2018-04-17T04:21:35.615Z,144.60
2018-04-17T04:22:35.607Z,138.30
2018-04-17T04:23:35.610Z,128.60
2018-04-17T04:24:35.593Z,124.60
2018-04-17T04:25:35.594Z,117.20
2018-04-17T04:26:35.584Z,120.60
2018-04-17T04:27:35.568Z,123.60
2018-04-17T04:28:35.566Z,116.40
2018-04-17T04:29:35.567Z,118.50
2018-04-17T04:30:35.564Z,105.00
2018-04-17T04:31:35.573Z,110.50
2018-04-17T04:32:35.548Z,117.40
2018-04-17T04:33:35.538Z,104.20
2018-04-17T04:34:35.540Z,114.00
2018-04-17T04:35:35.518Z,121.00
2018-04-17T04:36:35.514Z,111.30
2018-04-17T04:37:35.508Z,108.90
2018-04-17T04:38:35.500Z,119.20
2018-04-17T04:39:35.492Z,115.90
2018-04-17T04:40:35.488Z,122.00
2018-04-17T04:41:35.478Z,134.80
2018-04-17T04:42:35.470Z,148.40
2018-04-17T04:43:35.468Z,141.30
2018-04-17T04:44:35.455Z,142.10
2018-04-17T04:45:35.451Z,125.50
2018-04-17T04:46:35.430Z,117.60
2018-04-17T04:47:35.434Z,110.20
2018-04-17T04:48:35.435Z,114.40
2018-04-17T04:49:35.443Z,117.10
2018-04-17T04:50:35.411Z,111.00
2018-04-17T04:51:35.410Z,119.10
2018-04-17T04:52:35.397Z,120.70
2018-04-17T04:53:35.394Z,136.50
2018-04-17T04:54:35.392Z,130.40
2018-04-17T04:55:35.371Z,117.10
2018-04-17T04:56:35.394Z,107.70
2018-04-17T04:57:35.371Z,108.10
2018-04-17T04:58:35.358Z,104.40
2018-04-17T04:59:35.371Z,107.40
2018-04-17T05:00:35.342Z,118.60
2018-04-17T05:01:35.347Z,113.30
2018-04-17T05:02:35.335Z,111.40
2018-04-17T05:03:35.327Z,113.10
2018-04-17T05:04:35.315Z,120.50
2018-04-17T05:05:35.318Z,108.40
2018-04-17T05:06:35.319Z,103.20
2018-04-17T05:07:35.296Z,96.60
2018-04-17T05:08:35.296Z,89.90
2018-04-17T05:09:35.287Z,91.00
2018-04-17T05:10:35.283Z,78.60
2018-04-17T05:11:35.278Z,79.60
2018-04-17T05:12:35.265Z,75.90
2018-04-17T05:13:35.261Z,74.10
2018-04-17T05:14:35.277Z,74.90
2018-04-17T05:15:35.241Z,66.80
2018-04-17T05:16:35.254Z,62.00
2018-04-17T05:17:35.242Z,73.90
2018-04-17T05:18:35.232Z,68.70
2018-04-17T05:19:35.246Z,65.70
2018-04-17T05:20:35.228Z,59.20
2018-04-17T05:21:35.219Z,60.40
2018-04-17T05:22:35.209Z,55.40
2018-04-17T05:23:35.223Z,55.90
2018-04-17T05:24:35.221Z,54.30
2018-04-17T05:25:35.209Z,52.60
2018-04-17T05:26:35.186Z,57.30
2018-04-17T05:27:35.180Z,50.40
2018-04-17T05:28:35.182Z,49.70
2018-04-17T05:29:35.168Z,51.80
2018-04-17T05:30:35.166Z,46.70
2018-04-17T05:31:35.177Z,46.40
2018-04-17T05:32:35.147Z,47.50
2018-04-17T05:33:35.159Z,46.80
2018-04-17T05:34:35.139Z,47.80
2018-04-17T05:35:35.137Z,45.70
2018-04-17T05:36:35.130Z,50.20
2018-04-17T05:37:35.121Z,47.50
2018-04-17T05:38:35.124Z,45.70
2018-04-17T05:39:35.130Z,44.80
2018-04-17T05:40:35.119Z,38.80
2018-04-17T05:41:35.111Z,40.50
2018-04-17T05:42:35.134Z,42.70
2018-04-17T05:43:35.103Z,38.00
2018-04-17T05:44:35.087Z,39.40
2018-04-17T05:45:35.085Z,30.70
2018-04-17T05:46:35.083Z,32.60
2018-04-17T05:47:35.078Z,28.60
2018-04-17T05:48:35.078Z,28.10
2018-04-17T05:49:35.067Z,27.00
2018-04-17T05:50:35.065Z,29.30
2018-04-17T05:51:35.066Z,27.40
2018-04-17T05:52:35.064Z,25.00
2018-04-17T05:53:35.041Z,26.80
2018-04-17T05:54:35.048Z,24.20
2018-04-17T05:55:35.038Z,23.50
2018-04-17T05:56:35.045Z,23.40
2018-04-17T05:57:35.075Z,21.00
2018-04-17T05:58:35.024Z,22.30
2018-04-17T05:59:35.021Z,20.20
2018-04-17T06:00:35.016Z,18.70
2018-04-17T06:01:34.999Z,20.40
2018-04-17T06:02:35.006Z,18.30
2018-04-17T06:03:35.014Z,16.90
2018-04-17T06:04:34.996Z,17.20
2018-04-17T06:05:34.994Z,17.10
2018-04-17T06:06:35.000Z,17.60
2018-04-17T06:07:34.986Z,17.00
2018-04-17T06:08:34.975Z,17.40
2018-04-17T06:09:34.969Z,16.70
2018-04-17T06:10:34.977Z,18.70
2018-04-17T06:11:34.976Z,17.70
2018-04-17T06:12:34.968Z,18.00
2018-04-17T06:13:34.957Z,17.50
2018-04-17T06:14:34.957Z,16.30
2018-04-17T06:15:34.966Z,18.00
2018-04-17T06:16:34.942Z,20.50
2018-04-17T06:17:34.969Z,23.20
2018-04-17T06:18:34.934Z,21.80
2018-04-17T06:19:34.933Z,24.00
2018-04-17T06:20:34.939Z,27.10
2018-04-17T06:21:34.928Z,27.50
2018-04-17T06:22:34.938Z,19.10
2018-04-17T06:23:34.922Z,19.70
2018-04-17T06:24:34.924Z,17.80
2018-04-17T06:25:34.938Z,17.60
2018-04-17T06:26:34.902Z,16.90
2018-04-17T06:27:34.899Z,12.70
2018-04-17T06:28:34.905Z,12.10
2018-04-17T06:29:34.899Z,10.40
2018-04-17T06:30:34.893Z,9.40
2018-04-17T06:31:34.888Z,8.70
2018-04-17T06:32:34.880Z,8.80
2018-04-17T06:33:34.884Z,9.10
2018-04-17T06:34:34.897Z,8.90
2018-04-17T06:35:34.878Z,8.80
2018-04-17T06:36:34.899Z,8.20
2018-04-17T06:37:34.868Z,6.90
2018-04-17T06:38:34.872Z,7.60
2018-04-17T06:39:34.874Z,6.30
2018-04-17T06:40:34.866Z,4.60
2018-04-17T06:41:34.863Z,5.30
2018-04-17T06:42:34.864Z,5.20
2018-04-17T06:43:34.859Z,5.90
2018-04-17T06:44:34.848Z,5.70
2018-04-17T06:45:34.860Z,6.80
2018-04-17T06:46:34.867Z,6.00
2018-04-17T06:47:34.895Z,5.40
2018-04-17T06:48:34.842Z,5.40
2018-04-17T06:49:34.850Z,5.40
2018-04-17T06:50:34.840Z,4.60
2018-04-17T06:51:34.853Z,5.10
2018-04-17T06:52:34.837Z,4.50
2018-04-17T06:53:34.837Z,5.00
2018-04-17T06:54:34.831Z,4.60
2018-04-17T06:55:34.825Z,4.60
2018-04-17T06:56:34.831Z,4.80
2018-04-17T06:57:34.831Z,4.80
2018-04-17T06:58:34.867Z,4.50
2018-04-17T06:59:34.819Z,5.40
2018-04-17T07:00:34.809Z,5.10
2018-04-17T07:01:34.832Z,5.20
2018-04-17T07:02:34.801Z,5.30
2018-04-17T07:03:34.816Z,5.60
2018-04-17T07:04:34.811Z,4.80
2018-04-17T07:05:34.800Z,4.80
2018-04-17T07:06:34.807Z,5.00
2018-04-17T07:07:34.804Z,6.00
2018-04-17T07:08:34.810Z,5.10
2018-04-17T07:09:34.808Z,5.60
2018-04-17T07:10:34.792Z,5.10
2018-04-17T07:11:34.867Z,5.00
2018-04-17T07:12:34.801Z,5.80
2018-04-17T07:13:34.795Z,5.80
2018-04-17T07:14:34.789Z,5.20
2018-04-17T07:15:34.797Z,5.10
2018-04-17T07:16:34.791Z,6.50
2018-04-17T07:17:34.794Z,5.20
2018-04-17T07:18:34.798Z,4.90
2018-04-17T07:19:34.788Z,6.60
2018-04-17T07:20:34.784Z,5.30
2018-04-17T07:21:34.785Z,5.20
2018-04-17T07:22:34.799Z,5.20
2018-04-17T07:23:34.801Z,4.90
2018-04-17T07:24:34.800Z,5.40
2018-04-17T07:25:34.779Z,5.00
2018-04-17T07:26:34.766Z,5.50
2018-04-17T07:27:34.793Z,5.90
2018-04-17T07:28:34.777Z,5.30
2018-04-17T07:29:34.770Z,4.80
2018-04-17T07:30:34.779Z,5.40
2018-04-17T07:31:34.785Z,5.00
2018-04-17T07:32:34.779Z,5.20
2018-04-17T07:33:34.780Z,5.00
2018-04-17T07:34:34.828Z,5.30
2018-04-17T07:35:34.795Z,5.10
2018-04-17T07:36:34.805Z,5.10
2018-04-17T07:37:34.808Z,5.20
2018-04-17T07:38:34.810Z,4.70
2018-04-17T07:39:34.817Z,4.50
2018-04-17T07:40:34.891Z,5.10
2018-04-17T07:41:34.828Z,4.80
2018-04-17T07:42:34.840Z,5.10
2018-04-17T07:43:34.847Z,5.10
2018-04-17T07:44:34.854Z,5.20
2018-04-17T07:45:34.882Z,4.70
2018-04-17T07:46:34.880Z,5.20
2018-04-17T07:47:34.893Z,5.30
2018-04-17T07:48:34.891Z,5.50
2018-04-17T07:49:34.910Z,5.40
2018-04-17T07:50:34.912Z,5.10
2018-04-17T07:51:34.919Z,5.10
2018-04-17T07:52:34.945Z,5.00
2018-04-17T07:53:34.939Z,5.10
2018-04-17T07:54:34.947Z,4.90
2018-04-17T07:55:34.964Z,4.90
2018-04-17T07:56:34.971Z,5.20
2018-04-17T07:57:35.029Z,5.00
2018-04-17T07:58:34.992Z,5.10
2018-04-17T07:59:35.008Z,5.10
2018-04-17T08:00:35.022Z,4.90
2018-04-17T08:01:35.033Z,5.40
2018-04-17T08:02:35.064Z,5.40
2018-04-17T08:03:35.079Z,4.50
2018-04-17T08:04:35.080Z,4.40
2018-04-17T08:05:35.089Z,5.30
2018-04-17T08:06:35.095Z,4.80
2018-04-17T08:07:35.102Z,4.70
2018-04-17T08:08:35.120Z,4.80
2018-04-17T08:09:35.126Z,4.40
2018-04-17T08:10:35.131Z,4.70
2018-04-17T08:11:35.163Z,4.60
2018-04-17T08:12:35.169Z,4.90
2018-04-17T08:13:35.180Z,4.40
2018-04-17T08:14:35.189Z,4.10
2018-04-17T08:15:35.201Z,4.70
2018-04-17T08:16:35.214Z,4.70
2018-04-17T08:17:35.287Z,4.70
2018-04-17T08:18:35.264Z,4.30
2018-04-17T08:19:35.254Z,4.30
2018-04-17T08:20:35.287Z,4.90
2018-04-17T08:21:35.289Z,4.90
2018-04-17T08:22:35.302Z,5.00
2018-04-17T08:23:35.319Z,5.60
2018-04-17T08:24:35.327Z,5.70
2018-04-17T08:25:35.337Z,4.30
2018-04-17T08:26:35.345Z,5.30
2018-04-17T08:27:35.375Z,5.00
2018-04-17T08:28:35.384Z,5.10
2018-04-17T08:29:35.412Z,5.40
2018-04-17T08:30:35.457Z,5.20
2018-04-17T08:31:35.434Z,4.50
2018-04-17T08:32:35.443Z,5.10
2018-04-17T08:33:35.472Z,5.00
2018-04-17T08:34:35.470Z,5.60
2018-04-17T08:35:35.492Z,6.00
2018-04-17T08:36:35.534Z,5.30
2018-04-17T08:37:35.512Z,5.60
2018-04-17T08:38:35.538Z,5.80
2018-04-17T08:39:35.572Z,5.50
2018-04-17T08:40:35.558Z,5.30
2018-04-17T08:41:35.580Z,5.70
2018-04-17T08:42:35.592Z,5.60
2018-04-17T08:43:35.605Z,5.30
2018-04-17T08:44:35.626Z,5.60
2018-04-17T08:45:35.633Z,4.80
2018-04-17T08:46:35.665Z,5.30
2018-04-17T08:47:35.699Z,5.50
2018-04-17T08:48:35.696Z,5.00
2018-04-17T08:49:35.717Z,5.40
2018-04-17T08:50:35.707Z,5.20
2018-04-17T08:51:35.734Z,5.60
2018-04-17T08:52:35.740Z,5.60
2018-04-17T08:53:35.750Z,5.30
2018-04-17T08:54:35.765Z,5.60
2018-04-17T08:55:35.782Z,6.10
2018-04-17T08:56:35.805Z,5.30
2018-04-17T08:57:35.816Z,5.70
2018-04-17T08:58:35.831Z,5.60
2018-04-17T08:59:35.881Z,5.30
2018-04-17T09:00:35.864Z,5.50
2018-04-17T09:01:35.876Z,5.40
2018-04-17T09:02:35.892Z,5.60
2018-04-17T09:03:35.908Z,5.70
2018-04-17T09:04:35.922Z,5.30
2018-04-17T09:05:35.930Z,5.70
2018-04-17T09:06:35.951Z,5.70
2018-04-17T09:07:35.969Z,6.00
2018-04-17T09:08:35.984Z,5.50
2018-04-17T09:09:35.999Z,6.20
2018-04-17T09:10:36.028Z,5.60
2018-04-17T09:11:36.036Z,6.00
2018-04-17T09:12:36.043Z,5.90
2018-04-17T09:13:36.072Z,5.70
2018-04-17T09:14:36.109Z,5.90
2018-04-17T09:15:36.108Z,5.80
2018-04-17T09:16:36.108Z,5.70
2018-04-17T09:17:36.123Z,6.30
2018-04-17T09:18:36.150Z,5.60
2018-04-17T09:19:36.184Z,5.40
2018-04-17T09:20:36.177Z,5.60
2018-04-17T09:21:36.200Z,5.50
2018-04-17T09:22:36.222Z,6.30
2018-04-17T09:23:36.256Z,5.80
2018-04-17T09:24:36.274Z,6.40
2018-04-17T09:25:36.267Z,6.60
2018-04-17T09:26:36.283Z,6.80
2018-04-17T09:27:36.382Z,6.40
2018-04-17T09:28:36.319Z,6.60
2018-04-17T09:29:36.344Z,6.70
2018-04-17T09:30:36.370Z,6.60
2018-04-17T09:31:36.388Z,6.40
2018-04-17T09:32:36.397Z,6.60
2018-04-17T09:33:36.417Z,6.30
2018-04-17T09:34:36.429Z,6.70
2018-04-17T09:35:36.451Z,6.00
2018-04-17T09:36:36.479Z,5.80
2018-04-17T09:37:36.481Z,6.20
2018-04-17T09:38:36.503Z,5.80
2018-04-17T09:39:36.509Z,5.50
2018-04-17T09:40:36.537Z,6.00
2018-04-17T09:41:36.552Z,6.10
2018-04-17T09:42:36.568Z,6.20
2018-04-17T09:43:36.583Z,6.00
2018-04-17T09:44:36.628Z,5.90
2018-04-17T09:45:36.626Z,5.80
2018-04-17T09:46:36.633Z,6.40
2018-04-17T09:47:36.655Z,6.00
2018-04-17T09:48:36.682Z,6.50
2018-04-17T09:49:36.699Z,6.40
2018-04-17T09:50:36.735Z,6.10
2018-04-17T09:51:36.721Z,5.70
2018-04-17T09:52:36.744Z,5.50
2018-04-17T09:53:36.762Z,5.90
2018-04-17T09:54:36.787Z,5.40
2018-04-17T09:55:36.801Z,4.20
2018-04-17T09:56:36.816Z,5.40
2018-04-17T09:57:36.920Z,4.80
2018-04-17T09:58:36.870Z,5.10
2018-04-17T09:59:36.874Z,5.00
2018-04-17T10:00:36.889Z,5.30
2018-04-17T10:01:36.902Z,5.70
2018-04-17T10:02:36.916Z,5.00
2018-04-17T10:03:36.967Z,5.60
2018-04-17T10:04:36.964Z,5.20
2018-04-17T10:05:36.976Z,5.10
2018-04-17T10:06:36.985Z,4.50
2018-04-17T10:07:37.019Z,4.60
2018-04-17T10:08:37.047Z,4.80
2018-04-17T10:09:37.045Z,4.70
2018-04-17T10:10:37.063Z,5.10
2018-04-17T10:11:37.078Z,5.00
2018-04-17T10:12:37.100Z,5.10
2018-04-17T10:13:37.119Z,5.80
2018-04-17T10:14:37.136Z,5.60
2018-04-17T10:15:37.146Z,5.50
2018-04-17T10:16:37.187Z,5.20
2018-04-17T10:17:37.197Z,4.90
2018-04-17T10:18:37.206Z,4.90
2018-04-17T10:19:37.229Z,5.00
2018-04-17T10:20:37.238Z,5.00
2018-04-17T10:21:37.258Z,4.30
2018-04-17T10:22:37.295Z,4.30
2018-04-17T10:23:37.298Z,4.50
2018-04-17T10:24:37.348Z,4.10
2018-04-17T10:25:37.327Z,4.60
2018-04-17T10:26:37.347Z,4.00
2018-04-17T10:27:37.375Z,4.30
2018-04-17T10:28:37.379Z,4.20
2018-04-17T10:29:37.395Z,4.10
2018-04-17T10:30:37.484Z,3.50
2018-04-17T10:31:37.446Z,4.10
2018-04-17T10:32:37.447Z,4.10
2018-04-17T10:33:37.469Z,3.10
2018-04-17T10:34:37.496Z,3.10
2018-04-17T10:35:37.529Z,2.80
2018-04-17T10:36:37.527Z,2.80
2018-04-17T10:37:37.543Z,2.80
2018-04-17T10:38:37.553Z,3.00
2018-04-17T10:39:37.576Z,3.00
2018-04-17T10:40:37.603Z,3.10
2018-04-17T10:41:37.626Z,3.00
2018-04-17T10:42:37.640Z,2.80
2018-04-17T10:43:37.648Z,2.50
2018-04-17T10:44:37.670Z,2.70
2018-04-17T10:45:37.690Z,3.00
2018-04-17T10:46:37.720Z,2.50
2018-04-17T10:47:37.727Z,2.40
2018-04-17T10:48:37.750Z,2.60
2018-04-17T10:49:37.778Z,2.70
2018-04-17T10:50:37.774Z,3.20
2018-04-17T10:51:37.801Z,2.80
2018-04-17T10:52:37.810Z,4.90
2018-04-17T10:53:37.834Z,2.40
2018-04-17T10:54:37.859Z,2.60
2018-04-17T10:55:37.863Z,2.50
2018-04-17T10:56:37.886Z,2.10
2018-04-17T10:57:37.920Z,1.80
2018-04-17T10:58:37.930Z,2.10
2018-04-17T10:59:37.941Z,1.70
2018-04-17T11:00:37.942Z,1.80
2018-04-17T11:01:38.042Z,2.20
2018-04-17T11:02:38.002Z,2.90
2018-04-17T11:03:37.988Z,3.40
2018-04-17T11:04:37.996Z,3.10
2018-04-17T11:05:38.033Z,2.50
2018-04-17T11:06:38.033Z,2.70
2018-04-17T11:07:38.046Z,1.90
2018-04-17T11:08:38.066Z,2.30
2018-04-17T11:09:38.077Z,2.50
2018-04-17T11:10:38.107Z,2.50
2018-04-17T11:11:38.113Z,2.70
2018-04-17T11:12:38.114Z,2.80
2018-04-17T11:13:38.140Z,2.70
2018-04-17T11:14:38.139Z,3.10
2018-04-17T11:15:38.152Z,3.20
2018-04-17T11:16:38.180Z,2.50
2018-04-17T11:17:38.201Z,3.90
2018-04-17T11:18:38.205Z,2.60
2018-04-17T11:19:38.218Z,2.90
2018-04-17T11:20:38.224Z,2.40
2018-04-17T11:21:38.239Z,2.40
2018-04-17T11:22:38.279Z,2.40
2018-04-17T11:23:38.292Z,2.70
2018-04-17T11:24:38.290Z,2.20
2018-04-17T11:25:38.287Z,4.60
2018-04-17T11:26:38.314Z,3.20
2018-04-17T11:27:38.301Z,2.60
2018-04-17T11:28:38.327Z,2.80
2018-04-17T11:29:38.333Z,2.60
2018-04-17T11:30:38.337Z,2.70
2018-04-17T11:31:38.363Z,2.50
2018-04-17T11:32:38.404Z,2.50
2018-04-17T11:33:38.390Z,2.20
2018-04-17T11:34:38.423Z,2.00
2018-04-17T11:35:38.409Z,2.30
2018-04-17T11:36:38.420Z,2.10
2018-04-17T11:37:38.437Z,2.10
2018-04-17T11:38:38.454Z,2.30
2018-04-17T11:39:38.468Z,1.90
2018-04-17T11:40:38.470Z,2.60
2018-04-17T11:41:38.476Z,3.00
2018-04-17T11:42:38.490Z,2.80
2018-04-17T11:43:38.505Z,2.10
2018-04-17T11:44:38.524Z,3.30
2018-04-17T11:45:38.525Z,2.60
2018-04-17T11:46:38.527Z,2.40
2018-04-17T11:47:38.543Z,2.30
2018-04-17T11:48:38.593Z,2.20
2018-04-17T11:49:38.561Z,3.70
2018-04-17T11:50:38.581Z,2.30
2018-04-17T11:51:38.583Z,3.40
2018-04-17T11:52:38.596Z,2.40
2018-04-17T11:53:38.607Z,1.90
2018-04-17T11:54:38.623Z,2.20
2018-04-17T11:55:38.628Z,2.60
2018-04-17T11:56:38.638Z,1.90
2018-04-17T11:57:38.661Z,2.50
2018-04-17T11:58:38.674Z,2.10
2018-04-17T11:59:38.697Z,2.00
2018-04-17T12:00:38.712Z,3.00
2018-04-17T12:01:38.738Z,2.70
2018-04-17T12:02:38.733Z,3.80
2018-04-17T12:03:38.743Z,2.40
2018-04-17T12:04:38.763Z,2.70
2018-04-17T12:05:38.777Z,2.50
2018-04-17T12:06:38.787Z,2.80
2018-04-17T12:07:38.807Z,2.20
2018-04-17T12:08:38.822Z,2.40
2018-04-17T12:09:38.833Z,2.20
2018-04-17T12:10:38.859Z,2.10
2018-04-17T12:11:38.844Z,2.50
2018-04-17T12:12:38.893Z,2.70
2018-04-17T12:13:38.876Z,2.60
2018-04-17T12:14:38.938Z,2.50
2018-04-17T12:15:38.893Z,2.30
2018-04-17T12:16:38.911Z,2.60
2018-04-17T12:17:38.926Z,2.30
2018-04-17T12:18:38.932Z,2.10
2018-04-17T12:19:38.950Z,2.20
2018-04-17T12:20:38.958Z,2.20
2018-04-17T12:21:38.965Z,2.50
2018-04-17T12:22:38.998Z,2.30
2018-04-17T12:23:38.984Z,2.50
2018-04-17T12:24:39.004Z,2.50
2018-04-17T12:25:39.011Z,3.10
2018-04-17T12:26:39.026Z,2.70
2018-04-17T12:27:39.060Z,4.40
2018-04-17T12:28:39.065Z,2.30
2018-04-17T12:29:39.071Z,2.50
2018-04-17T12:30:39.076Z,2.00
2018-04-17T12:31:39.087Z,2.40
2018-04-17T12:32:39.097Z,2.60
2018-04-17T12:33:39.104Z,2.30
2018-04-17T12:34:39.191Z,3.30
2018-04-17T12:35:39.125Z,2.20
2018-04-17T12:36:39.131Z,2.00
2018-04-17T12:37:39.139Z,1.90
2018-04-17T12:38:39.144Z,2.20
2018-04-17T12:39:39.150Z,3.00
2018-04-17T12:40:39.153Z,2.50
2018-04-17T12:41:39.185Z,2.10
2018-04-17T12:42:39.164Z,4.80
2018-04-17T12:43:39.169Z,2.70
2018-04-17T12:44:39.184Z,2.80
2018-04-17T12:45:39.180Z,3.10
2018-04-17T12:46:39.201Z,2.60
2018-04-17T12:47:39.202Z,2.50
2018-04-17T12:48:39.204Z,2.80
2018-04-17T12:49:39.200Z,4.30
2018-04-17T12:50:39.197Z,2.50
2018-04-17T12:51:39.207Z,2.90
2018-04-17T12:52:39.204Z,2.70
2018-04-17T12:53:39.220Z,2.50
2018-04-17T12:54:39.235Z,2.70
2018-04-17T12:55:39.233Z,2.60
2018-04-17T12:56:39.238Z,3.30
2018-04-17T12:57:39.244Z,3.20
2018-04-17T12:58:39.229Z,3.20
2018-04-17T12:59:39.241Z,3.00
2018-04-17T13:00:39.241Z,3.00
2018-04-17T13:01:39.236Z,2.80
2018-04-17T13:02:39.243Z,2.90
2018-04-17T13:03:39.237Z,2.60
2018-04-17T13:04:39.241Z,3.30
2018-04-17T13:05:39.261Z,2.80
2018-04-17T13:06:39.254Z,3.80
2018-04-17T13:07:39.307Z,3.30
2018-04-17T13:08:39.281Z,3.00
2018-04-17T13:09:39.272Z,3.30
2018-04-17T13:10:39.257Z,2.60
2018-04-17T13:11:39.263Z,3.10
2018-04-17T13:12:39.278Z,2.90
2018-04-17T13:13:39.271Z,2.80
2018-04-17T13:14:39.265Z,2.80
2018-04-17T13:15:39.333Z,3.70
2018-04-17T13:16:39.273Z,3.10
2018-04-17T13:17:39.277Z,4.20
2018-04-17T13:18:39.286Z,2.50
2018-04-17T13:19:39.280Z,2.60
2018-04-17T13:20:39.282Z,2.70
2018-04-17T13:21:39.307Z,3.70
2018-04-17T13:22:39.287Z,5.10
2018-04-17T13:23:39.287Z,2.80
2018-04-17T13:24:39.284Z,2.60
2018-04-17T13:25:39.287Z,2.80
2018-04-17T13:26:39.290Z,2.60
2018-04-17T13:27:39.302Z,2.70
2018-04-17T13:28:39.293Z,2.40
2018-04-17T13:29:39.929Z,4.20
2018-04-17T13:30:39.299Z,2.60
2018-04-17T13:31:39.301Z,2.70
2018-04-17T13:32:39.304Z,2.40
2018-04-17T13:33:39.296Z,2.40
2018-04-17T13:34:39.309Z,2.40
2018-04-17T13:35:39.310Z,2.40
2018-04-17T13:36:39.305Z,4.00
2018-04-17T13:37:39.309Z,3.80
2018-04-17T13:38:39.310Z,2.40
2018-04-17T13:39:39.324Z,2.20
2018-04-17T13:40:39.323Z,2.20
2018-04-17T13:41:39.304Z,2.70
2018-04-17T13:42:39.314Z,2.40
2018-04-17T13:43:39.314Z,3.00
2018-04-17T13:44:39.314Z,2.30